Time;durP1;ratioP1;P1;durP2;ratioP2;P2;SDS_P1;SDS_P2;PMS_P1;PMS_P2;Temp;Humidity;BMP_temperature;BMP_pressure;BME280_temperature;BME280_humidity;BME280_pressure;Samples;Min_cycle;Max_cycle;Signal;HPM_P1;HPM_P2
2022/12/11 00:02:28;;;;;;;5.87;4.40;;;-1.20;99.90;;;;;;5057516;28;20216;-47
2022/12/11 00:04:55;;;;;;;6.40;4.67;;;-1.20;99.90;;;;;;5059173;28;20197;-46
2022/12/11 00:07:23;;;;;;;6.10;4.70;;;-1.20;99.90;;;;;;5062522;28;20191;-48
2022/12/11 00:09:52;;;;;;;6.43;3.80;;;-1.30;99.90;;;;;;5062984;28;20192;-49
2022/12/11 00:12:19;;;;;;;6.57;4.10;;;-1.30;99.90;;;;;;5039063;28;20220;-45
2022/12/11 00:14:45;;;;;;;5.20;4.23;;;-1.30;99.90;;;;;;5048196;28;20210;-59
2022/12/11 00:17:13;;;;;;;7.20;4.93;;;-1.40;99.90;;;;;;5061098;28;20212;-44
2022/12/11 00:19:39;;;;;;;6.37;4.40;;;-1.30;99.90;;;;;;5060830;28;20242;-58
2022/12/11 00:22:06;;;;;;;6.20;4.23;;;-1.30;99.90;;;;;;5055255;28;20243;-46
2022/12/11 00:24:35;;;;;;;7.10;4.40;;;-1.30;99.90;;;;;;5069523;28;20209;-55
2022/12/11 00:27:01;;;;;;;7.60;5.20;;;-1.20;99.90;;;;;;5039393;28;20205;-46
2022/12/11 00:29:29;;;;;;;7.23;4.87;;;-1.20;99.90;;;;;;5063329;28;20209;-49
2022/12/11 00:31:57;;;;;;;6.50;4.33;;;-1.20;99.90;;;;;;5051863;28;20285;-50
2022/12/11 00:34:24;;;;;;;7.00;4.93;;;-1.20;99.90;;;;;;5063453;28;20198;-47
2022/12/11 00:36:51;;;;;;;5.30;4.37;;;-1.30;99.90;;;;;;5059752;28;20205;-48
2022/12/11 00:39:17;;;;;;;7.57;4.90;;;-1.20;99.90;;;;;;5062464;28;20816;-47
2022/12/11 00:41:45;;;;;;;7.47;4.73;;;-1.20;99.90;;;;;;5050377;28;20226;-57
2022/12/11 00:44:12;;;;;;;7.20;4.57;;;-1.20;99.90;;;;;;5053736;28;20213;-52
2022/12/11 00:46:39;;;;;;;9.63;5.40;;;-1.20;99.90;;;;;;5057356;28;20210;-56
2022/12/11 00:49:06;;;;;;;8.57;4.80;;;-1.20;99.90;;;;;;5057048;28;20189;-47
2022/12/11 00:51:33;;;;;;;7.60;4.23;;;-1.30;99.90;;;;;;5062856;28;20299;-58
2022/12/11 00:54:00;;;;;;;6.47;4.57;;;-1.20;99.90;;;;;;5059829;28;20275;-51
2022/12/11 00:56:27;;;;;;;6.70;4.67;;;-1.20;99.90;;;;;;5063344;28;20198;-50
2022/12/11 00:58:56;;;;;;;7.63;4.73;;;-1.20;99.90;;;;;;5044737;28;20338;-47
2022/12/11 01:01:24;;;;;;;6.03;4.90;;;-1.20;99.90;;;;;;5055981;28;20239;-58
2022/12/11 01:03:52;;;;;;;8.97;5.10;;;-1.20;99.90;;;;;;5052573;28;20286;-49
2022/12/11 01:06:21;;;;;;;8.07;5.10;;;-1.20;99.90;;;;;;5061371;28;20713;-58
2022/12/11 01:08:47;;;;;;;9.03;5.13;;;-1.20;99.90;;;;;;5061263;28;20198;-50
2022/12/11 01:11:16;;;;;;;8.37;5.83;;;-1.20;99.90;;;;;;5062556;28;20838;-56
2022/12/11 01:13:43;;;;;;;6.27;4.87;;;-1.20;99.90;;;;;;5044579;28;20640;-48
2022/12/11 01:16:13;;;;;;;7.03;5.07;;;-1.20;99.90;;;;;;5063169;28;20197;-49
2022/12/11 01:18:41;;;;;;;7.33;4.93;;;-1.20;99.90;;;;;;5052508;28;20433;-50
2022/12/11 01:21:11;;;;;;;6.53;4.70;;;-1.20;99.90;;;;;;5062465;28;20586;-47
2022/12/11 01:23:38;;;;;;;7.43;4.53;;;-1.20;99.90;;;;;;5058381;28;20263;-51
2022/12/11 01:26:07;;;;;;;8.43;5.20;;;-1.20;99.90;;;;;;5062375;28;20209;-47
2022/12/11 01:28:33;;;;;;;8.47;5.13;;;-1.20;99.90;;;;;;5044444;28;20599;-46
2022/12/11 01:31:00;;;;;;;8.33;5.33;;;-1.20;99.90;;;;;;5062566;28;20221;-47
2022/12/11 01:33:28;;;;;;;8.47;5.53;;;-1.20;99.90;;;;;;5055124;28;20255;-58
2022/12/11 01:35:55;;;;;;;9.40;5.73;;;-1.30;99.90;;;;;;5055814;28;20201;-46
2022/12/11 01:38:23;;;;;;;6.93;4.90;;;-1.30;99.90;;;;;;5057975;28;20198;-57
2022/12/11 01:40:51;;;;;;;9.50;5.10;;;-1.30;99.90;;;;;;5056897;28;21036;-51
2022/12/11 01:43:18;;;;;;;6.80;5.47;;;-1.30;99.90;;;;;;5061228;28;20588;-56
2022/12/11 01:45:47;;;;;;;8.53;5.67;;;-1.30;99.90;;;;;;5040227;28;20204;-48
2022/12/11 01:48:18;;;;;;;8.47;5.23;;;-1.30;99.90;;;;;;5058041;28;20215;-57
2022/12/11 01:50:49;;;;;;;11.23;5.20;;;-1.20;99.90;;;;;;5047833;28;20452;-44
2022/12/11 01:53:20;;;;;;;6.53;5.17;;;-1.20;99.90;;;;;;5065301;28;20221;-57
2022/12/11 01:55:50;;;;;;;8.93;5.17;;;-1.20;99.90;;;;;;5064308;28;20436;-48
2022/12/11 01:58:19;;;;;;;7.10;5.07;;;-1.20;99.90;;;;;;5065197;28;20204;-58
2022/12/11 02:00:46;;;;;;;7.37;4.80;;;-1.20;99.90;;;;;;5044167;28;20231;-46
2022/12/11 02:03:34;;;;;;;8.97;5.50;;;-1.20;99.90;;;;;;5061604;28;20207;-53
2022/12/11 02:06:03;;;;;;;8.47;5.50;;;-1.20;99.90;;;;;;5059396;28;20670;-45
2022/12/11 02:08:30;;;;;;;9.93;5.57;;;-1.20;99.90;;;;;;5062522;28;20214;-58
2022/12/11 02:11:06;;;;;;;7.73;5.30;;;-1.20;99.90;;;;;;5065968;28;20219;-53
2022/12/11 02:13:42;;;;;;;7.00;4.80;;;-1.20;99.90;;;;;;5061849;28;20393;-54
2022/12/11 02:16:18;;;;;;;8.07;5.53;;;-1.20;99.90;;;;;;5042974;28;20215;-45
2022/12/11 02:18:52;;;;;;;8.50;5.50;;;-1.20;99.90;;;;;;5063113;28;20262;-51
2022/12/11 02:21:25;;;;;;;6.37;4.33;;;-1.20;99.90;;;;;;5057472;28;20713;-57
2022/12/11 02:24:18;;;;;;;7.67;4.60;;;-1.20;99.90;;;;;;5064863;28;20203;-49
2022/12/11 02:27:00;;;;;;;7.70;4.50;;;-1.20;99.90;;;;;;5057401;28;20200;-51
2022/12/11 02:29:36;;;;;;;5.60;4.90;;;-1.30;99.90;;;;;;5062682;28;20201;-58
2022/12/11 02:32:31;;;;;;;8.30;4.80;;;-1.30;99.90;;;;;;5048110;28;20219;-58
2022/12/11 02:35:05;;;;;;;7.13;5.13;;;-1.30;99.90;;;;;;5059271;28;20196;-46
2022/12/11 02:37:35;;;;;;;6.00;3.90;;;-1.30;99.90;;;;;;5054964;28;20562;-58
2022/12/11 02:40:05;;;;;;;7.53;5.00;;;-1.30;99.90;;;;;;5065552;28;20577;-47
2022/12/11 02:42:33;;;;;;;6.17;4.80;;;-1.30;99.90;;;;;;5061117;28;20931;-55
2022/12/11 02:45:04;;;;;;;6.73;4.40;;;-1.30;99.90;;;;;;5065486;28;20201;-46
2022/12/11 02:47:33;;;;;;;7.97;5.00;;;-1.30;99.90;;;;;;5048018;28;20211;-55
2022/12/11 02:50:03;;;;;;;6.67;4.67;;;-1.30;99.90;;;;;;5061496;28;20195;-51
2022/12/11 02:52:32;;;;;;;7.37;5.07;;;-1.20;99.90;;;;;;5054343;28;20560;-57
2022/12/11 02:55:01;;;;;;;7.33;5.20;;;-1.30;99.90;;;;;;5065062;28;20209;-45
2022/12/11 02:57:33;;;;;;;9.43;5.13;;;-1.30;99.90;;;;;;5062169;28;20201;-57
2022/12/11 03:00:02;;;;;;;6.90;4.70;;;-1.20;99.90;;;;;;5064986;28;20579;-46
2022/12/11 03:02:29;;;;;;;7.87;4.90;;;-1.20;99.90;;;;;;5060470;28;20195;-55
2022/12/11 03:04:56;;;;;;;10.27;5.17;;;-1.20;99.90;;;;;;5050006;28;20218;-50
2022/12/11 03:07:27;;;;;;;6.27;4.77;;;-1.30;99.90;;;;;;5058301;28;20282;-59
2022/12/11 03:09:53;;;;;;;9.47;5.40;;;-1.30;99.90;;;;;;5062738;28;20281;-47
2022/12/11 03:12:24;;;;;;;11.03;5.77;;;-1.30;99.90;;;;;;5062536;28;20209;-57
2022/12/11 03:14:51;;;;;;;8.23;5.30;;;-1.30;99.90;;;;;;5063541;28;20311;-47
2022/12/11 03:17:23;;;;;;;6.53;5.07;;;-1.30;99.90;;;;;;5063476;28;20219;-58
2022/12/11 03:19:56;;;;;;;8.23;5.40;;;-1.30;99.90;;;;;;5048768;28;20231;-44
2022/12/11 03:22:32;;;;;;;8.10;5.30;;;-1.20;99.90;;;;;;5055184;28;20200;-59
2022/12/11 03:25:03;;;;;;;9.37;5.83;;;-1.20;99.90;;;;;;5059326;28;20204;-47
2022/12/11 03:27:34;;;;;;;6.70;5.43;;;-1.20;99.90;;;;;;5061180;28;20201;-57
2022/12/11 03:30:06;;;;;;;8.73;5.43;;;-1.30;99.90;;;;;;5064308;28;20562;-49
2022/12/11 03:32:40;;;;;;;9.13;5.17;;;-1.30;99.90;;;;;;5051700;28;22907;-51
2022/12/11 03:35:12;;;;;;;7.17;4.93;;;-1.30;99.90;;;;;;5045680;28;20212;-55
2022/12/11 03:37:41;;;;;;;6.53;5.13;;;-1.30;99.90;;;;;;5062892;28;20543;-46
2022/12/11 03:40:13;;;;;;;8.30;5.63;;;-1.30;99.90;;;;;;5053489;28;20233;-57
2022/12/11 03:42:41;;;;;;;8.30;5.40;;;-1.30;99.90;;;;;;5062753;28;20197;-48
2022/12/11 03:45:09;;;;;;;10.47;5.67;;;-1.30;99.90;;;;;;5060357;28;20582;-56
2022/12/11 03:47:39;;;;;;;10.73;5.67;;;-1.30;99.90;;;;;;5062021;28;20211;-51
2022/12/11 03:50:09;;;;;;;8.50;5.60;;;-1.30;99.90;;;;;;5044867;28;20208;-56
2022/12/11 03:52:38;;;;;;;8.83;5.53;;;-1.30;99.90;;;;;;5060779;28;20578;-47
2022/12/11 03:55:07;;;;;;;8.07;5.37;;;-1.30;99.90;;;;;;5053783;28;20215;-55
2022/12/11 03:57:36;;;;;;;8.20;5.20;;;-1.30;99.90;;;;;;5055429;28;20212;-52
2022/12/11 04:00:05;;;;;;;8.30;5.77;;;-1.20;99.90;;;;;;5054920;28;20622;-56
2022/12/11 04:02:39;;;;;;;8.63;5.23;;;-1.20;99.90;;;;;;5062684;28;20309;-48
2022/12/11 04:05:07;;;;;;;8.87;5.73;;;-1.30;99.90;;;;;;5049843;28;20857;-57
2022/12/11 04:07:35;;;;;;;9.87;5.87;;;-1.30;99.90;;;;;;5045695;28;20691;-58
2022/12/11 04:10:02;;;;;;;8.37;5.60;;;-1.30;99.90;;;;;;5053575;28;20201;-54
2022/12/11 04:12:29;;;;;;;8.00;5.53;;;-1.30;99.90;;;;;;5061885;28;20289;-57
2022/12/11 04:15:02;;;;;;;11.50;6.70;;;-1.30;99.90;;;;;;5059301;28;20273;-49
2022/12/11 04:25:44;;;;;;;9.23;6.27;;;-1.30;99.90;;;;;;5051998;28;20280;-56
2022/12/11 04:28:11;;;;;;;8.47;6.87;;;-1.30;99.90;;;;;;5062212;28;20198;-50
2022/12/11 04:30:38;;;;;;;10.23;6.53;;;-1.30;99.90;;;;;;5055993;28;20231;-60
2022/12/11 04:33:05;;;;;;;10.77;6.63;;;-1.40;99.90;;;;;;5058806;28;20919;-48
2022/12/11 04:35:33;;;;;;;11.17;7.03;;;-1.40;99.90;;;;;;5055841;28;20239;-60
2022/12/11 04:38:00;;;;;;;11.77;7.37;;;-1.40;99.90;;;;;;5052185;28;20339;-45
2022/12/11 04:40:28;;;;;;;10.87;7.10;;;-1.40;99.90;;;;;;5054678;28;20667;-56
2022/12/11 04:42:54;;;;;;;9.87;6.67;;;-1.40;99.90;;;;;;5058337;28;20210;-52
2022/12/11 04:45:21;;;;;;;9.20;6.00;;;-1.40;99.90;;;;;;5062046;28;20205;-46
2022/12/11 04:47:48;;;;;;;11.20;6.83;;;-1.40;99.90;;;;;;5058187;28;20196;-46
2022/12/11 04:50:15;;;;;;;13.83;7.17;;;-1.40;99.90;;;;;;5061841;28;20218;-53
2022/12/11 04:52:44;;;;;;;11.70;6.83;;;-1.40;99.90;;;;;;5044055;28;20200;-59
2022/12/11 04:55:12;;;;;;;12.70;7.43;;;-1.40;99.90;;;;;;5061687;28;20198;-51
2022/12/11 04:57:42;;;;;;;9.67;6.87;;;-1.30;99.90;;;;;;5051612;28;20216;-57
2022/12/11 05:00:10;;;;;;;11.07;6.33;;;-1.30;99.90;;;;;;5060904;28;20282;-54
2022/12/11 05:02:38;;;;;;;9.93;6.70;;;-1.40;99.90;;;;;;5059174;28;20205;-54
2022/12/11 05:05:09;;;;;;;10.93;7.33;;;-1.40;99.90;;;;;;5060725;28;20205;-53
2022/12/11 05:07:36;;;;;;;10.50;7.07;;;-1.30;99.90;;;;;;5053041;28;20228;-60
2022/12/11 05:10:05;;;;;;;9.67;6.00;;;-1.30;99.90;;;;;;5053404;28;20204;-48
2022/12/11 05:12:32;;;;;;;10.43;6.37;;;-1.30;99.90;;;;;;5052812;28;20204;-57
2022/12/11 05:14:58;;;;;;;9.83;6.40;;;-1.30;99.90;;;;;;5059226;28;20371;-49
2022/12/11 05:17:25;;;;;;;7.97;5.47;;;-1.30;99.90;;;;;;5061436;28;20212;-47
2022/12/11 05:19:53;;;;;;;10.93;6.87;;;-1.30;99.90;;;;;;5056078;28;20195;-48
2022/12/11 05:22:19;;;;;;;10.77;6.77;;;-1.30;99.90;;;;;;5061236;28;20715;-43
2022/12/11 05:24:46;;;;;;;10.47;7.00;;;-1.40;99.90;;;;;;5044315;28;20213;-57
2022/12/11 05:27:14;;;;;;;12.00;7.83;;;-1.40;99.90;;;;;;5065443;28;20604;-46
2022/12/11 05:29:41;;;;;;;9.80;6.67;;;-1.50;99.90;;;;;;5057269;28;20204;-56
2022/12/11 05:32:08;;;;;;;10.13;7.13;;;-1.50;99.90;;;;;;5065220;28;20653;-46
2022/12/11 05:34:35;;;;;;;9.43;7.00;;;-1.50;99.90;;;;;;5064498;28;20229;-57
2022/12/11 05:37:02;;;;;;;10.40;7.10;;;-1.50;99.90;;;;;;5061948;28;20194;-51
2022/12/11 05:39:29;;;;;;;11.03;7.00;;;-1.40;99.90;;;;;;5051571;28;20739;-59
2022/12/11 05:41:56;;;;;;;11.23;7.23;;;-1.50;99.90;;;;;;5062254;28;20513;-44
2022/12/11 05:44:25;;;;;;;9.10;6.47;;;-1.50;99.90;;;;;;5058006;28;20204;-46
2022/12/11 05:46:53;;;;;;;11.20;7.30;;;-1.50;99.90;;;;;;5061987;28;20356;-54
2022/12/11 05:49:21;;;;;;;11.60;7.80;;;-1.50;99.90;;;;;;5065804;28;20207;-47
2022/12/11 05:51:48;;;;;;;9.63;7.00;;;-1.50;99.90;;;;;;5059483;28;20215;-60
2022/12/11 05:54:15;;;;;;;10.03;6.80;;;-1.50;99.90;;;;;;5066867;28;20546;-55
2022/12/11 05:56:42;;;;;;;11.93;7.20;;;-1.60;99.90;;;;;;5043877;28;20285;-59
2022/12/11 05:59:09;;;;;;;11.77;6.70;;;-1.60;99.90;;;;;;5065448;28;20212;-48
2022/12/11 06:01:40;;;;;;;10.17;7.13;;;-1.60;99.90;;;;;;5057860;28;20290;-58
2022/12/11 06:04:08;;;;;;;14.23;7.40;;;-1.60;99.90;;;;;;5050819;28;20233;-50
2022/12/11 06:06:36;;;;;;;12.23;7.07;;;-1.70;99.90;;;;;;5059409;28;20212;-56
2022/12/11 06:09:04;;;;;;;11.87;7.50;;;-1.70;99.90;;;;;;5051409;28;20198;-44
2022/12/11 06:11:33;;;;;;;11.33;7.63;;;-1.80;99.90;;;;;;5041857;28;20221;-54
2022/12/11 06:14:01;;;;;;;10.20;6.63;;;-1.80;99.90;;;;;;5061740;28;20346;-47
2022/12/11 06:16:28;;;;;;;14.40;7.33;;;-1.90;99.90;;;;;;5057846;28;20279;-54
2022/12/11 06:18:57;;;;;;;15.70;8.67;;;-1.80;99.90;;;;;;5061922;28;20216;-52
2022/12/11 06:21:26;;;;;;;13.37;8.20;;;-1.80;99.90;;;;;;5059270;28;20225;-46
2022/12/11 06:23:55;;;;;;;10.73;7.17;;;-1.90;99.90;;;;;;5053325;28;20717;-47
2022/12/11 06:26:21;;;;;;;11.33;7.77;;;-2.10;99.90;;;;;;5049250;28;20219;-54
2022/12/11 06:28:52;;;;;;;14.87;8.43;;;-2.10;99.90;;;;;;5060431;28;20192;-53
2022/12/11 06:31:19;;;;;;;13.83;7.87;;;-2.10;99.90;;;;;;5064635;28;20224;-45
2022/12/11 06:33:46;;;;;;;12.03;7.67;;;-2.20;99.90;;;;;;5053230;28;20664;-57
2022/12/11 06:36:16;;;;;;;12.00;7.67;;;-2.30;99.90;;;;;;5064615;28;20636;-47
2022/12/11 06:38:44;;;;;;;12.63;8.30;;;-2.40;99.90;;;;;;5057476;28;20196;-60
2022/12/11 06:41:12;;;;;;;13.50;8.00;;;-2.40;99.90;;;;;;5048919;28;20267;-51
2022/12/11 06:43:40;;;;;;;12.97;8.10;;;-2.40;99.90;;;;;;5058653;28;20212;-59
2022/12/11 06:46:09;;;;;;;13.80;8.03;;;-2.40;99.90;;;;;;5060468;28;20661;-46
2022/12/11 06:48:36;;;;;;;14.73;8.37;;;-2.40;99.90;;;;;;5055212;28;20199;-56
2022/12/11 06:51:05;;;;;;;10.40;7.73;;;-2.40;99.90;;;;;;5063106;28;20208;-49
2022/12/11 06:53:34;;;;;;;14.07;7.97;;;-2.50;99.90;;;;;;5063818;28;20231;-59
2022/12/11 06:56:06;;;;;;;14.43;8.13;;;-2.50;99.90;;;;;;5048110;28;20218;-47
2022/12/11 06:58:35;;;;;;;13.03;7.27;;;-2.60;99.90;;;;;;5061806;28;20234;-56
2022/12/11 07:01:02;;;;;;;12.13;7.80;;;-2.60;99.90;;;;;;5056947;28;20707;-45
2022/12/11 07:03:29;;;;;;;14.27;7.57;;;-2.60;99.90;;;;;;5057537;28;20211;-56
2022/12/11 07:06:01;;;;;;;11.43;7.33;;;-2.70;99.90;;;;;;5061571;28;20215;-47
2022/12/11 07:08:27;;;;;;;14.57;8.23;;;-2.70;99.90;;;;;;5064986;28;20696;-53
2022/12/11 07:11:01;;;;;;;11.30;7.47;;;-2.80;99.90;;;;;;5061091;28;20280;-46
2022/12/11 07:13:28;;;;;;;13.07;7.73;;;-2.80;99.90;;;;;;5050301;28;20215;-57
2022/12/11 07:15:55;;;;;;;13.33;8.27;;;-2.80;99.90;;;;;;5061234;28;20359;-51
2022/12/11 07:18:22;;;;;;;13.90;8.30;;;-2.80;99.90;;;;;;5056120;28;20198;-48
2022/12/11 07:20:49;;;;;;;15.93;8.80;;;-2.80;99.90;;;;;;5060476;28;20920;-47
2022/12/11 07:23:16;;;;;;;18.20;9.27;;;-2.90;99.90;;;;;;5064347;28;20200;-44
2022/12/11 07:25:43;;;;;;;14.00;8.13;;;-2.90;99.90;;;;;;5054764;28;20834;-57
2022/12/11 07:28:11;;;;;;;15.17;8.77;;;-2.90;99.90;;;;;;5038456;28;20226;-58
2022/12/11 07:30:38;;;;;;;12.37;8.50;;;-3.00;99.90;;;;;;5064415;28;20218;-48
2022/12/11 07:33:05;;;;;;;14.03;8.20;;;-3.00;99.90;;;;;;5050641;28;20291;-59
2022/12/11 07:35:34;;;;;;;16.87;9.03;;;-3.00;99.90;;;;;;5053301;28;20212;-52
2022/12/11 07:38:01;;;;;;;13.73;8.90;;;-3.00;99.90;;;;;;5049769;28;20447;-53
2022/12/11 07:40:27;;;;;;;15.37;8.90;;;-3.10;99.90;;;;;;5057609;28;20219;-47
2022/12/11 07:42:55;;;;;;;18.03;9.23;;;-3.10;99.90;;;;;;5039689;28;20226;-55
2022/12/11 07:45:25;;;;;;;15.80;9.47;;;-3.20;99.90;;;;;;5048708;28;20265;-49
2022/12/11 07:47:52;;;;;;;14.47;9.00;;;-3.30;99.90;;;;;;5048511;28;20898;-49
2022/12/11 07:50:19;;;;;;;15.33;8.00;;;-3.30;99.90;;;;;;5048895;28;20366;-49
2022/12/11 07:52:46;;;;;;;15.07;9.07;;;-3.30;99.90;;;;;;5044637;28;20207;-49
2022/12/11 07:55:13;;;;;;;13.40;8.10;;;-3.30;99.90;;;;;;5056278;28;20763;-57
2022/12/11 07:57:40;;;;;;;12.00;8.30;;;-3.40;99.90;;;;;;5050569;28;20196;-54
2022/12/11 08:00:09;;;;;;;15.73;8.67;;;-3.50;99.90;;;;;;5039318;28;20214;-50
2022/12/11 08:02:43;;;;;;;14.13;8.40;;;-3.40;99.90;;;;;;5049812;28;20332;-49
2022/12/11 08:05:11;;;;;;;15.47;8.07;;;-3.40;99.90;;;;;;5052568;28;20216;-56
2022/12/11 08:07:37;;;;;;;13.77;8.60;;;-3.40;99.90;;;;;;5050842;28;20191;-45
2022/12/11 08:10:05;;;;;;;15.17;8.83;;;-3.40;99.90;;;;;;5058432;28;20194;-50
2022/12/11 08:12:32;;;;;;;15.80;9.30;;;-3.40;99.90;;;;;;5054269;28;20186;-49
2022/12/11 08:14:58;;;;;;;15.60;9.20;;;-3.40;99.90;;;;;;5043151;28;20218;-47
2022/12/11 08:17:27;;;;;;;17.13;9.43;;;-3.40;99.90;;;;;;5051770;28;20256;-56
2022/12/11 08:19:54;;;;;;;17.53;8.83;;;-3.30;99.90;;;;;;5052293;28;20240;-50
2022/12/11 08:22:21;;;;;;;14.87;9.47;;;-3.30;99.90;;;;;;5052907;28;20220;-56
2022/12/11 08:24:49;;;;;;;16.27;8.87;;;-3.20;99.90;;;;;;5056908;28;20195;-44
2022/12/11 08:27:16;;;;;;;19.40;9.90;;;-3.20;99.90;;;;;;5054521;28;20206;-60
2022/12/11 08:29:44;;;;;;;15.63;9.13;;;-3.10;99.90;;;;;;5045945;28;20290;-59
2022/12/11 08:32:12;;;;;;;14.97;9.27;;;-3.20;99.90;;;;;;5056758;28;20727;-55
2022/12/11 08:34:39;;;;;;;14.87;8.27;;;-3.10;99.90;;;;;;5056779;28;20533;-45
2022/12/11 08:37:07;;;;;;;16.33;9.63;;;-3.00;99.90;;;;;;5045819;28;20213;-46
2022/12/11 08:39:34;;;;;;;21.30;10.57;;;-3.00;99.90;;;;;;5054425;28;20324;-49
2022/12/11 08:42:01;;;;;;;15.10;9.23;;;-3.00;99.90;;;;;;5056047;28;20227;-44
2022/12/11 08:44:28;;;;;;;16.90;9.63;;;-3.00;99.90;;;;;;5036491;28;20244;-61
2022/12/11 08:46:55;;;;;;;18.87;9.87;;;-2.90;99.90;;;;;;5056703;28;20832;-54
2022/12/11 08:49:23;;;;;;;15.67;9.67;;;-2.90;99.90;;;;;;5059856;28;20275;-59
2022/12/11 08:51:49;;;;;;;18.03;9.87;;;-2.80;99.90;;;;;;5051722;28;20272;-53
2022/12/11 08:54:18;;;;;;;15.07;9.57;;;-2.70;99.90;;;;;;5055297;28;20286;-58
2022/12/11 08:56:44;;;;;;;18.53;10.03;;;-2.70;99.90;;;;;;5061302;28;20905;-47
2022/12/11 08:59:12;;;;;;;17.17;9.70;;;-2.60;99.90;;;;;;5062997;28;20571;-60
2022/12/11 09:01:38;;;;;;;20.57;10.60;;;-2.60;99.90;;;;;;5046747;28;20214;-49
2022/12/11 09:04:05;;;;;;;18.00;9.83;;;-2.60;99.90;;;;;;5051673;28;20200;-45
2022/12/11 09:06:33;;;;;;;18.63;10.27;;;-2.60;99.90;;;;;;5053984;28;20313;-52
2022/12/11 09:09:00;;;;;;;17.00;9.40;;;-2.50;99.90;;;;;;5053682;28;20294;-45
2022/12/11 09:11:31;;;;;;;21.13;10.40;;;-2.30;99.90;;;;;;5064658;28;20215;-60
2022/12/11 09:13:58;;;;;;;16.77;9.23;;;-2.30;99.90;;;;;;5066703;28;20202;-48
2022/12/11 09:16:26;;;;;;;16.47;9.63;;;-2.30;99.90;;;;;;5050966;28;20261;-60
2022/12/11 09:18:55;;;;;;;19.37;10.53;;;-2.30;99.90;;;;;;5066207;28;20210;-52
2022/12/11 09:21:24;;;;;;;15.60;9.83;;;-2.30;99.90;;;;;;5053636;28;20696;-59
2022/12/11 09:23:54;;;;;;;23.17;10.57;;;-2.20;99.90;;;;;;5060200;28;20261;-48
2022/12/11 09:26:22;;;;;;;15.57;9.27;;;-2.20;99.90;;;;;;5053207;28;20229;-58
2022/12/11 09:28:52;;;;;;;17.80;9.60;;;-2.20;99.90;;;;;;5063113;28;20833;-47
2022/12/11 09:31:22;;;;;;;16.37;9.33;;;-2.20;99.90;;;;;;5063371;28;20720;-51
2022/12/11 09:33:50;;;;;;;14.60;9.20;;;-2.10;99.90;;;;;;5045584;28;20286;-59
2022/12/11 09:36:17;;;;;;;18.63;9.80;;;-2.10;99.90;;;;;;5063984;28;20296;-53
2022/12/11 09:38:44;;;;;;;18.43;10.40;;;-2.00;99.90;;;;;;5057165;28;20203;-59
2022/12/11 09:41:35;;;;;;;17.90;10.13;;;-2.00;99.90;;;;;;5058817;28;20232;-47
2022/12/11 09:44:16;;;;;;;17.37;9.47;;;-1.90;99.90;;;;;;5052354;28;20217;-49
2022/12/11 09:46:44;;;;;;;15.50;9.13;;;-1.90;99.90;;;;;;5057531;28;20239;-57
2022/12/11 09:49:20;;;;;;;17.60;9.87;;;-1.80;99.90;;;;;;5050928;28;20218;-48
2022/12/11 09:51:51;;;;;;;15.77;9.63;;;-1.70;99.90;;;;;;5050720;28;20226;-58
2022/12/11 09:54:18;;;;;;;16.87;9.63;;;-1.70;99.90;;;;;;5060102;28;20207;-48
2022/12/11 09:56:49;;;;;;;17.93;9.93;;;-1.60;99.90;;;;;;5055713;28;20216;-60
2022/12/11 09:59:27;;;;;;;18.03;10.63;;;-1.50;99.90;;;;;;5061389;28;20191;-50
2022/12/11 10:02:00;;;;;;;18.37;11.20;;;-1.30;99.90;;;;;;5051296;28;20467;-49
2022/12/11 10:04:41;;;;;;;20.73;10.03;;;-0.90;99.90;;;;;;5047930;28;20292;-45
2022/12/11 10:07:14;;;;;;;15.53;9.33;;;-0.60;99.90;;;;;;5060131;28;20197;-46
2022/12/11 10:09:49;;;;;;;16.17;9.70;;;-0.50;99.90;;;;;;5054516;28;20206;-56
2022/12/11 10:12:31;;;;;;;15.57;9.97;;;-0.60;99.90;;;;;;5050926;28;20203;-51
2022/12/11 10:15:19;;;;;;;19.73;10.03;;;-0.70;99.90;;;;;;5052228;28;20209;-47
2022/12/11 10:17:46;;;;;;;14.43;9.37;;;-0.80;99.90;;;;;;5052786;28;20196;-58
2022/12/11 10:20:23;;;;;;;17.00;9.87;;;-0.80;99.90;;;;;;5044898;28;20702;-49
2022/12/11 10:22:51;;;;;;;15.37;8.73;;;-0.80;99.90;;;;;;5053658;28;20210;-58
2022/12/11 10:25:21;;;;;;;14.77;9.37;;;-0.90;99.90;;;;;;5060423;28;20219;-50
2022/12/11 10:27:49;;;;;;;17.13;10.13;;;-0.90;99.90;;;;;;5048614;28;20666;-60
2022/12/11 10:30:21;;;;;;;14.90;9.53;;;-0.90;99.90;;;;;;5060968;28;20216;-53
2022/12/11 10:32:56;;;;;;;14.70;9.43;;;-0.90;99.90;;;;;;5059523;28;20212;-62
2022/12/11 10:35:31;;;;;;;13.17;9.10;;;-0.70;99.90;;;;;;5049089;28;20204;-50
2022/12/11 10:38:10;;;;;;;15.07;9.47;;;-0.70;99.90;;;;;;5059695;28;20191;-47
2022/12/11 10:40:38;;;;;;;13.57;9.00;;;-0.70;99.90;;;;;;5043936;28;20226;-59
2022/12/11 10:43:05;;;;;;;14.10;8.97;;;-0.70;99.90;;;;;;5051802;28;20246;-47
2022/12/11 10:45:33;;;;;;;13.73;9.10;;;-0.70;99.90;;;;;;5043915;28;20223;-58
2022/12/11 10:48:05;;;;;;;17.53;9.70;;;-0.70;99.90;;;;;;5059165;28;20192;-48
2022/12/11 10:50:32;;;;;;;18.10;9.83;;;-0.70;99.90;;;;;;5047711;28;20217;-61
2022/12/11 10:53:00;;;;;;;14.33;9.27;;;-0.60;99.90;;;;;;5061868;28;20189;-53
2022/12/11 10:55:30;;;;;;;15.67;9.40;;;-0.60;99.90;;;;;;5056626;28;20197;-60
2022/12/11 10:58:00;;;;;;;18.40;9.83;;;-0.60;99.90;;;;;;5055734;28;20215;-49
2022/12/11 11:00:33;;;;;;;16.20;9.37;;;-0.60;99.90;;;;;;5055045;28;20238;-59
2022/12/11 11:03:02;;;;;;;16.73;9.60;;;-0.70;99.90;;;;;;5051808;28;20227;-44
2022/12/11 11:05:30;;;;;;;15.37;8.80;;;-0.70;99.90;;;;;;5047079;28;20205;-59
2022/12/11 11:08:20;;;;;;;15.23;8.63;;;-0.60;99.90;;;;;;5060246;28;20193;-50
2022/12/11 11:11:21;;;;;;;14.20;8.83;;;-0.60;99.90;;;;;;5054479;28;20594;-47
2022/12/11 11:13:48;;;;;;;15.93;9.00;;;-0.60;99.90;;;;;;5045808;28;20213;-47
2022/12/11 11:16:19;;;;;;;13.97;9.00;;;-0.50;99.90;;;;;;5055967;28;20221;-52
2022/12/11 11:18:53;;;;;;;15.20;8.20;;;-0.50;99.90;;;;;;5044968;28;20194;-47
2022/12/11 11:21:22;;;;;;;13.17;8.63;;;-0.50;99.90;;;;;;5046850;28;20226;-53
2022/12/11 11:23:49;;;;;;;14.60;8.57;;;-0.50;99.90;;;;;;5059730;28;20316;-46
2022/12/11 11:26:17;;;;;;;14.13;8.90;;;-0.40;99.90;;;;;;5058163;28;20259;-50
2022/12/11 11:28:49;;;;;;;12.20;7.63;;;-0.40;99.90;;;;;;5052291;28;20229;-48
2022/12/11 11:31:19;;;;;;;15.13;9.07;;;-0.40;99.90;;;;;;5055165;28;20303;-52
2022/12/11 11:33:51;;;;;;;12.30;8.00;;;-0.40;99.90;;;;;;5046806;28;20305;-50
2022/12/11 11:36:21;;;;;;;13.47;8.60;;;-0.40;99.90;;;;;;5055025;28;20219;-53
2022/12/11 11:38:57;;;;;;;14.97;8.90;;;-0.30;99.90;;;;;;5046063;28;20193;-46
2022/12/11 11:41:29;;;;;;;13.40;7.90;;;-0.30;99.90;;;;;;5055751;28;20217;-59
2022/12/11 11:43:57;;;;;;;12.73;8.40;;;-0.30;99.90;;;;;;5052039;28;20838;-46
2022/12/11 11:46:33;;;;;;;12.83;7.43;;;-0.30;99.90;;;;;;5052448;28;20220;-59
2022/12/11 11:49:10;;;;;;;14.50;8.80;;;-0.40;99.90;;;;;;5050822;28;20208;-52
2022/12/11 11:51:39;;;;;;;12.13;7.80;;;-0.30;99.90;;;;;;5058706;28;20244;-58
2022/12/11 11:54:18;;;;;;;12.13;7.77;;;-0.30;99.90;;;;;;5045508;28;20209;-45
2022/12/11 11:56:46;;;;;;;14.67;8.17;;;-0.30;99.90;;;;;;5055696;28;20196;-48
2022/12/11 11:59:21;;;;;;;14.20;7.50;;;-0.30;99.90;;;;;;5053039;28;20234;-52
2022/12/11 12:01:57;;;;;;;10.93;7.30;;;-0.30;99.90;;;;;;5053966;28;20226;-50
2022/12/11 12:04:25;;;;;;;16.53;7.60;;;-0.30;99.90;;;;;;5055277;28;20231;-55
2022/12/11 12:07:14;;;;;;;10.90;7.60;;;-0.30;99.90;;;;;;5051491;28;20891;-49
2022/12/11 12:09:50;;;;;;;13.30;7.67;;;-0.20;99.90;;;;;;5042822;28;20282;-53
2022/12/11 12:12:24;;;;;;;10.90;7.47;;;-0.20;99.90;;;;;;5058296;28;20269;-48
2022/12/11 12:15:06;;;;;;;14.73;7.67;;;-0.20;99.90;;;;;;5054714;28;20204;-49
2022/12/11 12:17:45;;;;;;;14.80;8.27;;;-0.20;99.90;;;;;;5047499;28;20208;-47
2022/12/11 12:20:19;;;;;;;15.33;8.43;;;-0.20;99.90;;;;;;5051562;28;20225;-60
2022/12/11 12:22:55;;;;;;;13.00;8.00;;;-0.10;99.90;;;;;;5060475;28;20639;-50
2022/12/11 12:25:26;;;;;;;12.83;8.10;;;-0.10;99.90;;;;;;5043457;28;20239;-59
2022/12/11 12:27:59;;;;;;;12.10;7.50;;;0.00;99.90;;;;;;5058791;28;20304;-46
2022/12/11 12:30:31;;;;;;;16.23;7.93;;;-0.10;99.90;;;;;;5052072;28;20228;-52
2022/12/11 12:33:11;;;;;;;13.17;7.93;;;-0.10;99.90;;;;;;5048663;28;20195;-52
2022/12/11 12:35:44;;;;;;;13.37;7.60;;;0.00;99.90;;;;;;5049443;28;20296;-47
2022/12/11 12:38:21;;;;;;;13.03;8.03;;;-0.10;99.90;;;;;;5052355;28;20201;-60
2022/12/11 12:40:59;;;;;;;11.63;7.23;;;-0.10;99.90;;;;;;5057887;28;20228;-52
2022/12/11 12:43:41;;;;;;;12.43;7.27;;;-0.10;99.90;;;;;;5055582;28;20919;-48
2022/12/11 12:46:20;;;;;;;12.30;7.20;;;0.00;99.90;;;;;;5052632;28;20232;-57
2022/12/11 12:48:51;;;;;;;11.23;7.40;;;0.00;99.90;;;;;;5054820;28;20238;-44
2022/12/11 12:51:19;;;;;;;15.07;8.07;;;0.00;99.90;;;;;;5051032;28;20213;-58
2022/12/11 12:53:55;;;;;;;16.13;8.43;;;0.00;99.90;;;;;;5059688;28;20198;-49
2022/12/11 12:56:24;;;;;;;14.20;8.53;;;0.10;99.90;;;;;;5040280;28;20216;-60
2022/12/11 12:58:51;;;;;;;13.63;8.00;;;0.10;99.90;;;;;;5055282;28;20202;-61
2022/12/11 13:01:21;;;;;;;13.53;9.10;;;0.20;99.90;;;;;;5049070;28;20229;-55
2022/12/11 13:04:30;;;;;;;14.67;8.23;;;0.20;99.90;;;;;;5051411;28;20251;-58